NSZ8920 ENGM-EFHK
Flight info
| Callsign | NSZ8920 |
|---|---|
| Flight time | 1h 8m |
| Altitude | 35000 |
| Route | MASEV DCT OTKIL Y368 LAKUT |
| Aircraft | B738/M-SDE2E3FGHIRWXY/LB1 |
Departure
| Time | 2026-05-07 20:06 |
|---|---|
| Airport | Oslo-Gardermoen International Airport (ENGM) |
Arrival
| Time | 2026-05-07 21:14 |
|---|---|
| Airport | Helsinki Vantaa Airport (EFHK) |
| Time | Latitude | Longitude | Altitude | Speed | Heading |
|---|---|---|---|---|---|
| 2026-05-07 19:32 | 60.19569 | 11.09507 | 676 ft | 0 kts | 195° |
| 2026-05-07 19:56 | 60.19571 | 11.09508 | 677 ft | 1 kts | 195° |
| 2026-05-07 19:56 | 60.19581 | 11.09514 | 677 ft | 1 kts | 195° |
| 2026-05-07 19:57 | 60.19591 | 11.09519 | 677 ft | 1 kts | 195° |
| 2026-05-07 19:57 | 60.19601 | 11.09525 | 674 ft | 1 kts | 195° |
| 2026-05-07 19:57 | 60.19611 | 11.09530 | 672 ft | 1 kts | 195° |
| 2026-05-07 19:57 | 60.19620 | 11.09535 | 672 ft | 1 kts | 195° |
| 2026-05-07 19:58 | 60.19630 | 11.09541 | 658 ft | 1 kts | 195° |
| 2026-05-07 19:58 | 60.19640 | 11.09546 | 692 ft | 1 kts | 195° |
| 2026-05-07 19:58 | 60.19650 | 11.09551 | 684 ft | 1 kts | 195° |
| 2026-05-07 19:58 | 60.19660 | 11.09557 | 675 ft | 1 kts | 194° |
| 2026-05-07 19:59 | 60.19661 | 11.09557 | 675 ft | 0 kts | 194° |
| 2026-05-07 20:01 | 60.19657 | 11.09558 | 675 ft | 1 kts | 171° |
| 2026-05-07 20:01 | 60.19647 | 11.09669 | 678 ft | 15 kts | 79° |
| 2026-05-07 20:01 | 60.19718 | 11.09767 | 678 ft | 13 kts | 15° |
| 2026-05-07 20:02 | 60.19804 | 11.09815 | 679 ft | 13 kts | 18° |
| 2026-05-07 20:02 | 60.19887 | 11.09861 | 679 ft | 12 kts | 15° |
| 2026-05-07 20:02 | 60.19967 | 11.09918 | 679 ft | 12 kts | 38° |
| 2026-05-07 20:02 | 60.19972 | 11.10018 | 680 ft | 11 kts | 104° |
| 2026-05-07 20:03 | 60.19943 | 11.10219 | 682 ft | 18 kts | 106° |
| 2026-05-07 20:03 | 60.19908 | 11.10470 | 678 ft | 18 kts | 106° |
| 2026-05-07 20:03 | 60.19873 | 11.10713 | 684 ft | 18 kts | 107° |
| 2026-05-07 20:03 | 60.19840 | 11.10944 | 684 ft | 17 kts | 106° |
| 2026-05-07 20:04 | 60.19808 | 11.11170 | 682 ft | 16 kts | 106° |
| 2026-05-07 20:04 | 60.19769 | 11.11382 | 685 ft | 16 kts | 116° |
| 2026-05-07 20:04 | 60.19738 | 11.11536 | 682 ft | 12 kts | 105° |
| 2026-05-07 20:04 | 60.19717 | 11.11690 | 685 ft | 11 kts | 105° |
| 2026-05-07 20:05 | 60.19686 | 11.11818 | 683 ft | 15 kts | 133° |
| 2026-05-07 20:05 | 60.19584 | 11.11911 | 685 ft | 16 kts | 156° |
| 2026-05-07 20:05 | 60.19538 | 11.11906 | 682 ft | 6 kts | 193° |
| 2026-05-07 20:05 | 60.19249 | 11.11743 | 683 ft | 81 kts | 196° |
| 2026-05-07 20:06 | 60.18480 | 11.11300 | 681 ft | 146 kts | 195° |
| 2026-05-07 20:06 | 60.17402 | 11.10702 | 1106 ft | 165 kts | 194° |
| 2026-05-07 20:06 | 60.16301 | 11.10082 | 2048 ft | 159 kts | 195° |
| 2026-05-07 20:06 | 60.15215 | 11.09469 | 2835 ft | 165 kts | 195° |
| 2026-05-07 20:07 | 60.14082 | 11.09228 | 3594 ft | 166 kts | 169° |
| 2026-05-07 20:07 | 60.12962 | 11.09680 | 4251 ft | 177 kts | 171° |
| 2026-05-07 20:07 | 60.11778 | 11.10813 | 4481 ft | 206 kts | 132° |
| 2026-05-07 20:07 | 60.10841 | 11.13171 | 4714 ft | 228 kts | 129° |
| 2026-05-07 20:08 | 60.09771 | 11.15666 | 5132 ft | 241 kts | 132° |
| 2026-05-07 20:08 | 60.08601 | 11.18283 | 5466 ft | 262 kts | 128° |
| 2026-05-07 20:08 | 60.07923 | 11.21677 | 6178 ft | 268 kts | 92° |
| 2026-05-07 20:08 | 60.08122 | 11.25391 | 7001 ft | 271 kts | 80° |
| 2026-05-07 20:09 | 60.08455 | 11.29151 | 7712 ft | 277 kts | 80° |
| 2026-05-07 20:09 | 60.08799 | 11.32984 | 8462 ft | 282 kts | 80° |
| 2026-05-07 20:09 | 60.09141 | 11.36886 | 9214 ft | 287 kts | 80° |
| 2026-05-07 20:10 | 60.09810 | 11.44892 | 10516 ft | 304 kts | 81° |
| 2026-05-07 20:10 | 60.10160 | 11.49240 | 10709 ft | 327 kts | 81° |
| 2026-05-07 20:10 | 60.10523 | 11.53840 | 11196 ft | 339 kts | 81° |
| 2026-05-07 20:10 | 60.10888 | 11.58540 | 11894 ft | 344 kts | 81° |
| 2026-05-07 20:11 | 60.11256 | 11.63314 | 12612 ft | 349 kts | 81° |
| 2026-05-07 20:11 | 60.11626 | 11.68166 | 13335 ft | 355 kts | 81° |
| 2026-05-07 20:11 | 60.11998 | 11.73087 | 14060 ft | 360 kts | 81° |
| 2026-05-07 20:11 | 60.12374 | 11.78091 | 14743 ft | 365 kts | 81° |
| 2026-05-07 20:12 | 60.12754 | 11.83170 | 15420 ft | 371 kts | 81° |
| 2026-05-07 20:12 | 60.13137 | 11.88322 | 16109 ft | 376 kts | 81° |
| 2026-05-07 20:12 | 60.13523 | 11.93548 | 16805 ft | 381 kts | 81° |
| 2026-05-07 20:12 | 60.13911 | 11.98828 | 17477 ft | 387 kts | 81° |
| 2026-05-07 20:13 | 60.14306 | 12.04225 | 18146 ft | 392 kts | 81° |
| 2026-05-07 20:13 | 60.14702 | 12.09680 | 18762 ft | 397 kts | 81° |
| 2026-05-07 20:13 | 60.15096 | 12.15135 | 19341 ft | 402 kts | 81° |
| 2026-05-07 20:13 | 60.15501 | 12.20784 | 19945 ft | 406 kts | 80° |
| 2026-05-07 20:14 | 60.15900 | 12.26375 | 20531 ft | 411 kts | 80° |
| 2026-05-07 20:14 | 60.16304 | 12.32076 | 21116 ft | 415 kts | 80° |
| 2026-05-07 20:14 | 60.16710 | 12.37837 | 21677 ft | 420 kts | 80° |
| 2026-05-07 20:14 | 60.17120 | 12.43678 | 22219 ft | 424 kts | 80° |
| 2026-05-07 20:15 | 60.17531 | 12.49570 | 22783 ft | 429 kts | 79° |
| 2026-05-07 20:15 | 60.17944 | 12.55559 | 23331 ft | 433 kts | 79° |
| 2026-05-07 20:15 | 60.18351 | 12.61587 | 23835 ft | 438 kts | 80° |
| 2026-05-07 20:15 | 60.18755 | 12.67673 | 24282 ft | 441 kts | 80° |
| 2026-05-07 20:16 | 60.19159 | 12.73825 | 24750 ft | 445 kts | 79° |
| 2026-05-07 20:16 | 60.19562 | 12.79989 | 25185 ft | 448 kts | 79° |
| 2026-05-07 20:16 | 60.19968 | 12.86253 | 25621 ft | 452 kts | 79° |
| 2026-05-07 20:16 | 60.20373 | 12.92543 | 26054 ft | 455 kts | 79° |
| 2026-05-07 20:17 | 60.20779 | 12.98878 | 26473 ft | 459 kts | 79° |
| 2026-05-07 20:17 | 60.21185 | 13.05269 | 26876 ft | 462 kts | 79° |
| 2026-05-07 20:17 | 60.21592 | 13.11710 | 27296 ft | 466 kts | 79° |
| 2026-05-07 20:17 | 60.21998 | 13.18191 | 27697 ft | 469 kts | 79° |
| 2026-05-07 20:18 | 60.22404 | 13.24734 | 28087 ft | 472 kts | 79° |
| 2026-05-07 20:18 | 60.22810 | 13.31324 | 28467 ft | 476 kts | 79° |
| 2026-05-07 20:18 | 60.23215 | 13.37951 | 28855 ft | 479 kts | 79° |
| 2026-05-07 20:18 | 60.23614 | 13.44542 | 29169 ft | 483 kts | 79° |
| 2026-05-07 20:19 | 60.24022 | 13.51307 | 29136 ft | 489 kts | 79° |
| 2026-05-07 20:19 | 60.24820 | 13.64818 | 29264 ft | 483 kts | 79° |
| 2026-05-07 20:19 | 60.25213 | 13.71561 | 29516 ft | 487 kts | 79° |
| 2026-05-07 20:20 | 60.25607 | 13.78351 | 29919 ft | 489 kts | 79° |
| 2026-05-07 20:20 | 60.26000 | 13.85198 | 30289 ft | 491 kts | 79° |
| 2026-05-07 20:20 | 60.26390 | 13.92043 | 30575 ft | 494 kts | 79° |
| 2026-05-07 20:20 | 60.26779 | 13.98936 | 30863 ft | 497 kts | 80° |
| 2026-05-07 20:21 | 60.27166 | 14.05860 | 31161 ft | 498 kts | 80° |
| 2026-05-07 20:21 | 60.27549 | 14.12794 | 31543 ft | 498 kts | 80° |
| 2026-05-07 20:21 | 60.27927 | 14.19716 | 31969 ft | 496 kts | 80° |
| 2026-05-07 20:21 | 60.28301 | 14.26626 | 32377 ft | 495 kts | 80° |
| 2026-05-07 20:22 | 60.28671 | 14.33524 | 32752 ft | 495 kts | 80° |
| 2026-05-07 20:22 | 60.29038 | 14.40426 | 33087 ft | 495 kts | 80° |
| 2026-05-07 20:22 | 60.29401 | 14.47326 | 33429 ft | 495 kts | 81° |
| 2026-05-07 20:22 | 60.29757 | 14.54142 | 33787 ft | 495 kts | 81° |
| 2026-05-07 20:23 | 60.30114 | 14.61061 | 34150 ft | 495 kts | 81° |
| 2026-05-07 20:23 | 60.30467 | 14.67974 | 34465 ft | 494 kts | 81° |
| 2026-05-07 20:23 | 60.30815 | 14.74869 | 34804 ft | 492 kts | 81° |
| 2026-05-07 20:23 | 60.31157 | 14.81721 | 35127 ft | 491 kts | 82° |
| 2026-05-07 20:24 | 60.31497 | 14.88591 | 35154 ft | 495 kts | 82° |
| 2026-05-07 20:24 | 60.32170 | 15.02408 | 35157 ft | 492 kts | 82° |
| 2026-05-07 20:25 | 60.32818 | 15.16023 | 35152 ft | 490 kts | 82° |
| 2026-05-07 20:25 | 60.33455 | 15.29692 | 35148 ft | 488 kts | 82° |
| 2026-05-07 20:26 | 60.34077 | 15.43334 | 35121 ft | 487 kts | 82° |
| 2026-05-07 20:26 | 60.34684 | 15.56965 | 35121 ft | 488 kts | 82° |
| 2026-05-07 20:27 | 60.35277 | 15.70612 | 35141 ft | 488 kts | 83° |
| 2026-05-07 20:27 | 60.35858 | 15.84300 | 35157 ft | 489 kts | 83° |
| 2026-05-07 20:28 | 60.36427 | 15.98032 | 35172 ft | 491 kts | 83° |
| 2026-05-07 20:28 | 60.36983 | 16.11806 | 35185 ft | 492 kts | 83° |
| 2026-05-07 20:29 | 60.37525 | 16.25613 | 35193 ft | 494 kts | 83° |
| 2026-05-07 20:29 | 60.38056 | 16.39476 | 35185 ft | 495 kts | 83° |
| 2026-05-07 20:30 | 60.38571 | 16.53342 | 35177 ft | 495 kts | 84° |
| 2026-05-07 20:30 | 60.39070 | 16.67144 | 35181 ft | 496 kts | 84° |
| 2026-05-07 20:31 | 60.39558 | 16.81045 | 35183 ft | 496 kts | 84° |
| 2026-05-07 20:31 | 60.40031 | 16.94953 | 35185 ft | 495 kts | 84° |
| 2026-05-07 20:32 | 60.40490 | 17.08855 | 35188 ft | 495 kts | 84° |
| 2026-05-07 20:32 | 60.40934 | 17.22759 | 35186 ft | 494 kts | 84° |
| 2026-05-07 20:33 | 60.41363 | 17.36644 | 35181 ft | 494 kts | 85° |
| 2026-05-07 20:33 | 60.41777 | 17.50513 | 35187 ft | 494 kts | 85° |
| 2026-05-07 20:34 | 60.42174 | 17.64295 | 35189 ft | 493 kts | 86° |
| 2026-05-07 20:34 | 60.42548 | 17.78160 | 35197 ft | 493 kts | 85° |
| 2026-05-07 20:35 | 60.42925 | 17.92026 | 35192 ft | 493 kts | 85° |
| 2026-05-07 20:35 | 60.43278 | 18.05920 | 35193 ft | 494 kts | 85° |
| 2026-05-07 20:36 | 60.43621 | 18.19796 | 35194 ft | 494 kts | 85° |
| 2026-05-07 20:36 | 60.43954 | 18.33694 | 35197 ft | 494 kts | 86° |
| 2026-05-07 20:37 | 60.44268 | 18.47526 | 35205 ft | 494 kts | 86° |
| 2026-05-07 20:37 | 60.44567 | 18.61451 | 35202 ft | 495 kts | 86° |
| 2026-05-07 20:38 | 60.44851 | 18.75385 | 35207 ft | 495 kts | 86° |
| 2026-05-07 20:38 | 60.45122 | 18.89341 | 35207 ft | 495 kts | 86° |
| 2026-05-07 20:39 | 60.45377 | 19.03222 | 35208 ft | 496 kts | 86° |
| 2026-05-07 20:39 | 60.45618 | 19.17184 | 35208 ft | 496 kts | 86° |
| 2026-05-07 20:40 | 60.45845 | 19.31148 | 35205 ft | 496 kts | 87° |
| 2026-05-07 20:40 | 60.46058 | 19.45119 | 35210 ft | 496 kts | 87° |
| 2026-05-07 20:41 | 60.46256 | 19.59087 | 35211 ft | 496 kts | 87° |
| 2026-05-07 20:41 | 60.46439 | 19.73091 | 35210 ft | 496 kts | 87° |
| 2026-05-07 20:42 | 60.46608 | 19.87067 | 35210 ft | 496 kts | 87° |
| 2026-05-07 20:42 | 60.46761 | 20.00952 | 35211 ft | 496 kts | 88° |
| 2026-05-07 20:43 | 60.46901 | 20.14931 | 35206 ft | 496 kts | 88° |
| 2026-05-07 20:43 | 60.47026 | 20.28909 | 35208 ft | 496 kts | 88° |
| 2026-05-07 20:44 | 60.47136 | 20.42879 | 35205 ft | 495 kts | 88° |
| 2026-05-07 20:44 | 60.47231 | 20.56833 | 35203 ft | 495 kts | 88° |
| 2026-05-07 20:45 | 60.47312 | 20.70805 | 35204 ft | 495 kts | 88° |
| 2026-05-07 20:45 | 60.47348 | 20.77791 | 35052 ft | 498 kts | 88° |
| 2026-05-07 20:45 | 60.47380 | 20.84843 | 34510 ft | 500 kts | 88° |
| 2026-05-07 20:45 | 60.47408 | 20.91881 | 33950 ft | 499 kts | 88° |
| 2026-05-07 20:46 | 60.47431 | 20.98797 | 33494 ft | 495 kts | 88° |
| 2026-05-07 20:46 | 60.47451 | 21.05758 | 33029 ft | 491 kts | 88° |
| 2026-05-07 20:46 | 60.47468 | 21.12661 | 32606 ft | 486 kts | 89° |
| 2026-05-07 20:46 | 60.47481 | 21.19497 | 32166 ft | 483 kts | 89° |
| 2026-05-07 20:47 | 60.47492 | 21.26279 | 31739 ft | 479 kts | 89° |
| 2026-05-07 20:47 | 60.47499 | 21.33002 | 31319 ft | 476 kts | 89° |
| 2026-05-07 20:47 | 60.47498 | 21.39685 | 30905 ft | 472 kts | 89° |
| 2026-05-07 20:47 | 60.47466 | 21.46320 | 30495 ft | 470 kts | 90° |
| 2026-05-07 20:48 | 60.47417 | 21.52922 | 30040 ft | 467 kts | 90° |
| 2026-05-07 20:48 | 60.47361 | 21.59485 | 29569 ft | 463 kts | 90° |
| 2026-05-07 20:48 | 60.47303 | 21.65975 | 29151 ft | 459 kts | 90° |
| 2026-05-07 20:48 | 60.47245 | 21.72408 | 28727 ft | 454 kts | 90° |
| 2026-05-07 20:49 | 60.47188 | 21.78798 | 28301 ft | 451 kts | 90° |
| 2026-05-07 20:49 | 60.47130 | 21.85045 | 27897 ft | 447 kts | 90° |
| 2026-05-07 20:49 | 60.47070 | 21.91333 | 27474 ft | 444 kts | 90° |
| 2026-05-07 20:49 | 60.47007 | 21.97567 | 27075 ft | 441 kts | 90° |
| 2026-05-07 20:50 | 60.46943 | 22.03752 | 26665 ft | 438 kts | 90° |
| 2026-05-07 20:50 | 60.46875 | 22.09923 | 26262 ft | 436 kts | 90° |
| 2026-05-07 20:50 | 60.46829 | 22.13979 | 25995 ft | 434 kts | 90° |
| 2026-05-07 20:50 | 60.46757 | 22.20078 | 25604 ft | 432 kts | 90° |
| 2026-05-07 20:51 | 60.46683 | 22.26149 | 25211 ft | 429 kts | 90° |
| 2026-05-07 20:51 | 60.46608 | 22.32182 | 24818 ft | 428 kts | 90° |
| 2026-05-07 20:51 | 60.46530 | 22.38193 | 24429 ft | 426 kts | 90° |
| 2026-05-07 20:51 | 60.46450 | 22.44177 | 24038 ft | 424 kts | 90° |
| 2026-05-07 20:52 | 60.46367 | 22.50147 | 23615 ft | 423 kts | 90° |
| 2026-05-07 20:52 | 60.46284 | 22.56086 | 23149 ft | 421 kts | 90° |
| 2026-05-07 20:52 | 60.46200 | 22.62009 | 22736 ft | 418 kts | 90° |
| 2026-05-07 20:52 | 60.46116 | 22.67870 | 22347 ft | 415 kts | 90° |
| 2026-05-07 20:53 | 60.46030 | 22.73698 | 22058 ft | 409 kts | 90° |
| 2026-05-07 20:53 | 60.45943 | 22.79385 | 22070 ft | 399 kts | 90° |
| 2026-05-07 20:53 | 60.45854 | 22.85064 | 22086 ft | 409 kts | 91° |
| 2026-05-07 20:53 | 60.45762 | 22.90890 | 22103 ft | 418 kts | 91° |
| 2026-05-07 20:54 | 60.45665 | 22.96778 | 22084 ft | 417 kts | 91° |
| 2026-05-07 20:54 | 60.45567 | 23.02537 | 21947 ft | 411 kts | 91° |
| 2026-05-07 20:54 | 60.45468 | 23.08301 | 21599 ft | 408 kts | 91° |
| 2026-05-07 20:54 | 60.45365 | 23.14044 | 21165 ft | 407 kts | 91° |
| 2026-05-07 20:55 | 60.45259 | 23.19791 | 20742 ft | 405 kts | 91° |
| 2026-05-07 20:55 | 60.45150 | 23.25477 | 20362 ft | 403 kts | 91° |
| 2026-05-07 20:55 | 60.45039 | 23.31120 | 20015 ft | 400 kts | 91° |
| 2026-05-07 20:55 | 60.44926 | 23.36731 | 19662 ft | 397 kts | 91° |
| 2026-05-07 20:56 | 60.44812 | 23.42291 | 19309 ft | 394 kts | 91° |
| 2026-05-07 20:56 | 60.44697 | 23.47818 | 18946 ft | 389 kts | 91° |
| 2026-05-07 20:56 | 60.44583 | 23.53195 | 18449 ft | 385 kts | 91° |
| 2026-05-07 20:56 | 60.44466 | 23.58610 | 17817 ft | 383 kts | 91° |
| 2026-05-07 20:57 | 60.44349 | 23.63976 | 17271 ft | 379 kts | 91° |
| 2026-05-07 20:57 | 60.44230 | 23.69280 | 16758 ft | 374 kts | 91° |
| 2026-05-07 20:57 | 60.44113 | 23.74499 | 16241 ft | 369 kts | 91° |
| 2026-05-07 20:57 | 60.43994 | 23.79670 | 15724 ft | 365 kts | 91° |
| 2026-05-07 20:58 | 60.43873 | 23.84785 | 15224 ft | 361 kts | 91° |
| 2026-05-07 20:58 | 60.43849 | 23.89833 | 14711 ft | 356 kts | 83° |
| 2026-05-07 20:58 | 60.44119 | 23.94770 | 14219 ft | 351 kts | 79° |
| 2026-05-07 20:58 | 60.44453 | 23.99658 | 13758 ft | 346 kts | 79° |
| 2026-05-07 20:59 | 60.44761 | 24.04416 | 13471 ft | 334 kts | 79° |
| 2026-05-07 20:59 | 60.45040 | 24.08962 | 13140 ft | 326 kts | 80° |
| 2026-05-07 20:59 | 60.45302 | 24.13498 | 12693 ft | 322 kts | 81° |
| 2026-05-07 20:59 | 60.45556 | 24.17979 | 12311 ft | 320 kts | 81° |
| 2026-05-07 21:00 | 60.45783 | 24.22447 | 11969 ft | 319 kts | 86° |
| 2026-05-07 21:00 | 60.45482 | 24.26883 | 11722 ft | 317 kts | 108° |
| 2026-05-07 21:00 | 60.44700 | 24.31018 | 11457 ft | 313 kts | 112° |
| 2026-05-07 21:00 | 60.43855 | 24.35077 | 11135 ft | 312 kts | 113° |
| 2026-05-07 21:01 | 60.43008 | 24.39102 | 10850 ft | 310 kts | 113° |
| 2026-05-07 21:01 | 60.42179 | 24.43078 | 10527 ft | 304 kts | 112° |
| 2026-05-07 21:01 | 60.41376 | 24.46975 | 10283 ft | 294 kts | 112° |
| 2026-05-07 21:01 | 60.40608 | 24.50718 | 10159 ft | 281 kts | 112° |
| 2026-05-07 21:02 | 60.39873 | 24.54320 | 9913 ft | 274 kts | 112° |
| 2026-05-07 21:02 | 60.39157 | 24.57827 | 9647 ft | 266 kts | 112° |
| 2026-05-07 21:02 | 60.38459 | 24.61255 | 9381 ft | 261 kts | 112° |
| 2026-05-07 21:02 | 60.37783 | 24.64560 | 9144 ft | 255 kts | 112° |
| 2026-05-07 21:03 | 60.37099 | 24.67900 | 8885 ft | 254 kts | 112° |
| 2026-05-07 21:03 | 60.36434 | 24.71143 | 8633 ft | 253 kts | 112° |
| 2026-05-07 21:03 | 60.35644 | 24.74290 | 8348 ft | 251 kts | 131° |
| 2026-05-07 21:03 | 60.34297 | 24.76464 | 8126 ft | 246 kts | 151° |
| 2026-05-07 21:04 | 60.32789 | 24.78081 | 7880 ft | 245 kts | 155° |
| 2026-05-07 21:04 | 60.31262 | 24.79598 | 7629 ft | 244 kts | 155° |
| 2026-05-07 21:04 | 60.29738 | 24.81110 | 7384 ft | 244 kts | 155° |
| 2026-05-07 21:04 | 60.28221 | 24.82631 | 7155 ft | 241 kts | 155° |
| 2026-05-07 21:05 | 60.26738 | 24.84131 | 6898 ft | 236 kts | 154° |
| 2026-05-07 21:05 | 60.25289 | 24.85610 | 6636 ft | 230 kts | 154° |
| 2026-05-07 21:05 | 60.23884 | 24.87049 | 6396 ft | 222 kts | 154° |
| 2026-05-07 21:05 | 60.22540 | 24.88424 | 6169 ft | 211 kts | 154° |
| 2026-05-07 21:06 | 60.21262 | 24.89735 | 5957 ft | 202 kts | 153° |
| 2026-05-07 21:06 | 60.20023 | 24.91003 | 5740 ft | 197 kts | 153° |
| 2026-05-07 21:06 | 60.18822 | 24.92231 | 5530 ft | 190 kts | 153° |
| 2026-05-07 21:06 | 60.17644 | 24.93437 | 5251 ft | 189 kts | 153° |
| 2026-05-07 21:07 | 60.16503 | 24.94601 | 5158 ft | 181 kts | 153° |
| 2026-05-07 21:07 | 60.15376 | 24.95752 | 5086 ft | 184 kts | 152° |
| 2026-05-07 21:07 | 60.14243 | 24.96908 | 5025 ft | 187 kts | 153° |
| 2026-05-07 21:07 | 60.13077 | 24.98095 | 4938 ft | 188 kts | 153° |
| 2026-05-07 21:08 | 60.11911 | 24.99321 | 4747 ft | 193 kts | 145° |
| 2026-05-07 21:08 | 60.11126 | 25.01431 | 4423 ft | 187 kts | 100° |
| 2026-05-07 21:08 | 60.11246 | 25.03878 | 4234 ft | 174 kts | 59° |
| 2026-05-07 21:08 | 60.11969 | 25.05717 | 4071 ft | 167 kts | 43° |
| 2026-05-07 21:09 | 60.12777 | 25.07416 | 3899 ft | 169 kts | 43° |
| 2026-05-07 21:09 | 60.13591 | 25.09126 | 3706 ft | 171 kts | 43° |
| 2026-05-07 21:09 | 60.14417 | 25.10856 | 3535 ft | 172 kts | 43° |
| 2026-05-07 21:09 | 60.15249 | 25.12539 | 3321 ft | 167 kts | 33° |
| 2026-05-07 21:10 | 60.16311 | 25.13129 | 3120 ft | 160 kts | 352° |
| 2026-05-07 21:10 | 60.17355 | 25.12362 | 3058 ft | 161 kts | 334° |
| 2026-05-07 21:10 | 60.18361 | 25.11358 | 3013 ft | 161 kts | 335° |
| 2026-05-07 21:10 | 60.19387 | 25.10340 | 2624 ft | 173 kts | 335° |
| 2026-05-07 21:11 | 60.20447 | 25.09272 | 2394 ft | 170 kts | 335° |
| 2026-05-07 21:11 | 60.21498 | 25.08213 | 2155 ft | 168 kts | 335° |
| 2026-05-07 21:11 | 60.23550 | 25.06132 | 1714 ft | 160 kts | 335° |
| 2026-05-07 21:12 | 60.24516 | 25.05144 | 1483 ft | 151 kts | 334° |
| 2026-05-07 21:12 | 60.25424 | 25.04185 | 1303 ft | 146 kts | 333° |
| 2026-05-07 21:12 | 60.26286 | 25.03246 | 1130 ft | 142 kts | 332° |
| 2026-05-07 21:12 | 60.27147 | 25.02321 | 947 ft | 139 kts | 336° |
| 2026-05-07 21:13 | 60.28046 | 25.01573 | 762 ft | 140 kts | 333° |
| 2026-05-07 21:13 | 60.28903 | 25.00648 | 684 ft | 141 kts | 331° |
| 2026-05-07 21:13 | 60.29749 | 24.99824 | 432 ft | 132 kts | 333° |
| 2026-05-07 21:13 | 60.30560 | 24.98967 | 237 ft | 132 kts | 333° |
| 2026-05-07 21:14 | 60.31352 | 24.98161 | 160 ft | 119 kts | 333° |
| 2026-05-07 21:14 | 60.31952 | 24.97549 | 161 ft | 77 kts | 333° |
| 2026-05-07 21:14 | 60.32304 | 24.97191 | 162 ft | 32 kts | 334° |
| 2026-05-07 21:14 | 60.32382 | 24.96989 | 164 ft | 14 kts | 258° |
| 2026-05-07 21:15 | 60.32347 | 24.96894 | 163 ft | 3 kts | 226° |
| 2026-05-07 21:15 | 60.32346 | 24.96891 | 163 ft | 3 kts | 226° |
| 2026-05-07 21:15 | 60.32317 | 24.96828 | 163 ft | 0 kts | 230° |
| 2026-05-07 21:16 | 60.32300 | 24.96784 | 163 ft | 13 kts | 232° |
| 2026-05-07 21:16 | 60.32208 | 24.96778 | 163 ft | 17 kts | 150° |
| 2026-05-07 21:16 | 60.32132 | 24.96865 | 162 ft | 10 kts | 151° |
| 2026-05-07 21:16 | 60.32083 | 24.96924 | 162 ft | 8 kts | 148° |
| 2026-05-07 21:17 | 60.32035 | 24.96977 | 162 ft | 9 kts | 153° |
| 2026-05-07 21:17 | 60.31949 | 24.97065 | 161 ft | 15 kts | 153° |
| 2026-05-07 21:17 | 60.31835 | 24.97185 | 161 ft | 22 kts | 151° |
| 2026-05-07 21:17 | 60.31771 | 24.97223 | 161 ft | 4 kts | 237° |
| 2026-05-07 21:18 | 60.31750 | 24.97119 | 161 ft | 0 kts | 241° |